sensor_id;sensor_type;location;lat;lon;timestamp;pressure;altitude;pressure_sealevel;temperature;humidity
3544;BME280;1786;52.870;9.578;2022-10-31T00:00:54;100951.44;;;27.42;47.61
3544;BME280;1786;52.870;9.578;2022-10-31T00:03:20;100946.81;;;27.36;47.63
3544;BME280;1786;52.870;9.578;2022-10-31T00:05:48;100951.31;;;27.22;48.21
3544;BME280;1786;52.870;9.578;2022-10-31T00:08:16;100943.66;;;27.11;48.27
3544;BME280;1786;52.870;9.578;2022-10-31T00:10:44;100937.00;;;27.13;48.93
3544;BME280;1786;52.870;9.578;2022-10-31T00:13:13;100942.97;;;27.24;49.03
3544;BME280;1786;52.870;9.578;2022-10-31T00:15:40;100938.00;;;27.34;47.98
3544;BME280;1786;52.870;9.578;2022-10-31T00:18:08;100945.53;;;27.32;48.28
3544;BME280;1786;52.870;9.578;2022-10-31T00:20:37;100945.16;;;27.13;48.58
3544;BME280;1786;52.870;9.578;2022-10-31T00:23:05;100953.75;;;27.17;48.29
3544;BME280;1786;52.870;9.578;2022-10-31T00:25:34;100956.56;;;26.81;49.57
3544;BME280;1786;52.870;9.578;2022-10-31T00:28:03;100957.38;;;27.03;49.49
3544;BME280;1786;52.870;9.578;2022-10-31T00:30:31;100968.06;;;26.83;50.08
3544;BME280;1786;52.870;9.578;2022-10-31T00:32:57;100966.59;;;27.08;49.89
3544;BME280;1786;52.870;9.578;2022-10-31T00:35:25;100985.69;;;26.93;49.99
3544;BME280;1786;52.870;9.578;2022-10-31T00:37:52;100985.31;;;26.53;51.22
3544;BME280;1786;52.870;9.578;2022-10-31T00:40:19;100994.41;;;26.89;50.54
3544;BME280;1786;52.870;9.578;2022-10-31T00:42:45;100986.19;;;26.61;51.77
3544;BME280;1786;52.870;9.578;2022-10-31T00:45:12;100993.81;;;26.72;51.36
3544;BME280;1786;52.870;9.578;2022-10-31T00:47:39;100986.47;;;26.87;51.03
3544;BME280;1786;52.870;9.578;2022-10-31T00:50:07;100988.56;;;27.13;50.82
3544;BME280;1786;52.870;9.578;2022-10-31T00:52:34;100989.22;;;27.15;50.97
3544;BME280;1786;52.870;9.578;2022-10-31T00:55:01;100986.88;;;27.12;50.79
3544;BME280;1786;52.870;9.578;2022-10-31T00:57:28;101000.84;;;27.31;50.81
3544;BME280;1786;52.870;9.578;2022-10-31T00:59:55;101004.59;;;27.08;51.15
3544;BME280;1786;52.870;9.578;2022-10-31T01:02:21;101010.44;;;27.27;50.38
3544;BME280;1786;52.870;9.578;2022-10-31T01:04:48;101011.97;;;26.93;50.93
3544;BME280;1786;52.870;9.578;2022-10-31T01:07:15;101022.03;;;27.21;50.85
3544;BME280;1786;52.870;9.578;2022-10-31T01:09:43;101019.44;;;27.12;51.63
3544;BME280;1786;52.870;9.578;2022-10-31T01:12:10;101025.50;;;27.36;51.34
3544;BME280;1786;52.870;9.578;2022-10-31T01:14:42;101021.22;;;27.48;51.38
3544;BME280;1786;52.870;9.578;2022-10-31T01:17:09;101032.56;;;27.58;51.49
3544;BME280;1786;52.870;9.578;2022-10-31T01:19:36;101031.88;;;27.50;51.46
3544;BME280;1786;52.870;9.578;2022-10-31T01:22:02;101034.69;;;27.63;51.27
3544;BME280;1786;52.870;9.578;2022-10-31T01:24:29;101040.00;;;27.78;51.07
3544;BME280;1786;52.870;9.578;2022-10-31T01:26:56;101035.78;;;28.03;50.46
3544;BME280;1786;52.870;9.578;2022-10-31T01:29:23;101035.97;;;27.95;50.42
3544;BME280;1786;52.870;9.578;2022-10-31T01:31:50;101031.47;;;27.81;50.69
3544;BME280;1786;52.870;9.578;2022-10-31T01:34:17;101039.75;;;28.01;50.47
3544;BME280;1786;52.870;9.578;2022-10-31T01:36:45;101040.00;;;28.06;50.25
3544;BME280;1786;52.870;9.578;2022-10-31T01:39:15;101039.97;;;27.43;51.57
3544;BME280;1786;52.870;9.578;2022-10-31T01:41:44;101043.13;;;27.75;50.85
3544;BME280;1786;52.870;9.578;2022-10-31T01:46:48;101039.94;;;27.99;50.33
3544;BME280;1786;52.870;9.578;2022-10-31T01:52:12;101033.53;;;28.14;49.18
3544;BME280;1786;52.870;9.578;2022-10-31T01:54:47;101042.81;;;27.85;49.83
3544;BME280;1786;52.870;9.578;2022-10-31T01:57:17;101039.38;;;27.76;49.91
3544;BME280;1786;52.870;9.578;2022-10-31T01:59:49;101035.53;;;27.63;50.09
3544;BME280;1786;52.870;9.578;2022-10-31T02:02:19;101040.59;;;27.73;49.74
3544;BME280;1786;52.870;9.578;2022-10-31T02:04:47;101041.16;;;27.90;49.53
3544;BME280;1786;52.870;9.578;2022-10-31T02:07:21;101046.59;;;27.90;49.31
3544;BME280;1786;52.870;9.578;2022-10-31T02:09:51;101050.34;;;27.89;49.47
3544;BME280;1786;52.870;9.578;2022-10-31T02:12:19;101047.75;;;27.81;49.59
3544;BME280;1786;52.870;9.578;2022-10-31T02:14:46;101055.25;;;27.79;49.36
3544;BME280;1786;52.870;9.578;2022-10-31T02:17:14;101061.75;;;27.78;49.26
3544;BME280;1786;52.870;9.578;2022-10-31T02:25:48;101054.09;;;27.60;49.51
3544;BME280;1786;52.870;9.578;2022-10-31T02:33:43;101062.59;;;27.50;49.42
3544;BME280;1786;52.870;9.578;2022-10-31T02:42:07;101065.06;;;27.45;49.70
3544;BME280;1786;52.870;9.578;2022-10-31T02:44:49;101073.28;;;27.30;50.07
3544;BME280;1786;52.870;9.578;2022-10-31T02:47:22;101065.47;;;27.21;50.00
3544;BME280;1786;52.870;9.578;2022-10-31T02:49:57;101073.63;;;27.06;50.26
3544;BME280;1786;52.870;9.578;2022-10-31T02:52:28;101063.44;;;26.86;50.88
3544;BME280;1786;52.870;9.578;2022-10-31T02:57:59;101073.84;;;26.68;51.32
3544;BME280;1786;52.870;9.578;2022-10-31T03:00:35;101073.44;;;26.86;50.49
3544;BME280;1786;52.870;9.578;2022-10-31T03:06:00;101073.38;;;27.01;49.94
3544;BME280;1786;52.870;9.578;2022-10-31T03:09:41;101078.03;;;27.07;49.93
3544;BME280;1786;52.870;9.578;2022-10-31T03:12:02;101090.16;;;26.89;50.50
3544;BME280;1786;52.870;9.578;2022-10-31T03:14:51;101094.69;;;27.04;50.50
3544;BME280;1786;52.870;9.578;2022-10-31T03:17:35;101099.75;;;27.07;50.47
3544;BME280;1786;52.870;9.578;2022-10-31T03:20:04;101104.09;;;27.23;50.05
3544;BME280;1786;52.870;9.578;2022-10-31T03:22:33;101105.75;;;27.24;49.82
3544;BME280;1786;52.870;9.578;2022-10-31T03:25:02;101107.19;;;27.41;49.51
3544;BME280;1786;52.870;9.578;2022-10-31T03:27:33;101107.44;;;27.46;49.75
3544;BME280;1786;52.870;9.578;2022-10-31T03:30:04;101109.50;;;27.44;49.67
3544;BME280;1786;52.870;9.578;2022-10-31T03:32:49;101104.59;;;27.33;49.57
3544;BME280;1786;52.870;9.578;2022-10-31T03:35:20;101104.34;;;27.28;49.94
3544;BME280;1786;52.870;9.578;2022-10-31T03:37:49;101098.28;;;27.26;49.37
3544;BME280;1786;52.870;9.578;2022-10-31T03:40:20;101096.53;;;27.39;49.20
3544;BME280;1786;52.870;9.578;2022-10-31T03:42:54;101098.56;;;27.16;49.28
3544;BME280;1786;52.870;9.578;2022-10-31T03:45:27;101104.81;;;27.16;49.36
3544;BME280;1786;52.870;9.578;2022-10-31T03:47:57;101111.13;;;27.17;49.14
3544;BME280;1786;52.870;9.578;2022-10-31T03:50:30;101109.91;;;27.19;49.19
3544;BME280;1786;52.870;9.578;2022-10-31T03:53:10;101105.41;;;27.27;49.02
3544;BME280;1786;52.870;9.578;2022-10-31T03:55:49;101104.44;;;26.76;49.60
3544;BME280;1786;52.870;9.578;2022-10-31T03:58:28;101100.63;;;26.56;50.21
3544;BME280;1786;52.870;9.578;2022-10-31T04:00:56;101110.97;;;26.67;49.77
3544;BME280;1786;52.870;9.578;2022-10-31T04:03:27;101112.16;;;26.80;49.69
3544;BME280;1786;52.870;9.578;2022-10-31T04:06:03;101107.41;;;26.82;49.01
3544;BME280;1786;52.870;9.578;2022-10-31T04:08:33;101113.75;;;26.89;49.19
3544;BME280;1786;52.870;9.578;2022-10-31T04:11:03;101121.75;;;27.61;47.73
3544;BME280;1786;52.870;9.578;2022-10-31T04:13:33;101124.72;;;27.88;46.84
3544;BME280;1786;52.870;9.578;2022-10-31T04:16:14;101123.50;;;27.91;46.56
3544;BME280;1786;52.870;9.578;2022-10-31T04:18:43;101131.31;;;27.79;46.87
3544;BME280;1786;52.870;9.578;2022-10-31T04:21:10;101134.75;;;27.88;46.72
3544;BME280;1786;52.870;9.578;2022-10-31T04:23:37;101134.41;;;27.97;46.28
3544;BME280;1786;52.870;9.578;2022-10-31T04:26:14;101133.59;;;28.03;46.71
3544;BME280;1786;52.870;9.578;2022-10-31T04:28:42;101134.84;;;28.01;46.24
3544;BME280;1786;52.870;9.578;2022-10-31T04:31:11;101135.28;;;28.04;46.01
3544;BME280;1786;52.870;9.578;2022-10-31T04:33:39;101144.66;;;28.02;46.13
3544;BME280;1786;52.870;9.578;2022-10-31T04:36:06;101149.84;;;27.97;46.07
3544;BME280;1786;52.870;9.578;2022-10-31T04:38:33;101154.84;;;27.93;46.02
3544;BME280;1786;52.870;9.578;2022-10-31T04:41:04;101155.97;;;27.77;46.00
3544;BME280;1786;52.870;9.578;2022-10-31T04:43:43;101152.66;;;27.82;46.21
3544;BME280;1786;52.870;9.578;2022-10-31T04:46:10;101155.97;;;27.77;46.16
3544;BME280;1786;52.870;9.578;2022-10-31T04:48:36;101150.47;;;27.71;46.63
3544;BME280;1786;52.870;9.578;2022-10-31T04:51:05;101153.44;;;27.76;46.57
3544;BME280;1786;52.870;9.578;2022-10-31T04:53:32;101152.47;;;26.83;47.81
3544;BME280;1786;52.870;9.578;2022-10-31T04:56:25;101152.59;;;26.60;48.69
3544;BME280;1786;52.870;9.578;2022-10-31T04:58:57;101139.94;;;26.52;48.87
3544;BME280;1786;52.870;9.578;2022-10-31T05:01:25;101138.88;;;26.61;48.83
3544;BME280;1786;52.870;9.578;2022-10-31T05:03:54;101137.84;;;26.84;48.87
3544;BME280;1786;52.870;9.578;2022-10-31T05:06:21;101125.72;;;26.80;48.79
3544;BME280;1786;52.870;9.578;2022-10-31T05:08:47;101132.13;;;26.93;48.42
3544;BME280;1786;52.870;9.578;2022-10-31T05:11:14;101123.13;;;26.71;49.23
3544;BME280;1786;52.870;9.578;2022-10-31T05:13:43;101128.03;;;26.61;49.16
3544;BME280;1786;52.870;9.578;2022-10-31T05:16:13;101131.94;;;26.59;49.34
3544;BME280;1786;52.870;9.578;2022-10-31T05:19:14;101128.56;;;26.71;49.55
3544;BME280;1786;52.870;9.578;2022-10-31T05:22:10;101134.44;;;26.60;49.37
3544;BME280;1786;52.870;9.578;2022-10-31T05:24:37;101132.75;;;26.74;49.33
3544;BME280;1786;52.870;9.578;2022-10-31T05:27:04;101131.16;;;26.80;49.02
3544;BME280;1786;52.870;9.578;2022-10-31T05:29:30;101139.72;;;26.83;49.25
3544;BME280;1786;52.870;9.578;2022-10-31T05:32:02;101138.16;;;26.89;49.32
3544;BME280;1786;52.870;9.578;2022-10-31T05:34:47;101126.66;;;26.87;49.02
3544;BME280;1786;52.870;9.578;2022-10-31T05:37:40;101131.94;;;26.95;49.54
3544;BME280;1786;52.870;9.578;2022-10-31T05:40:10;101129.25;;;26.95;49.35
3544;BME280;1786;52.870;9.578;2022-10-31T05:42:39;101140.78;;;27.18;48.82
3544;BME280;1786;52.870;9.578;2022-10-31T05:45:08;101137.31;;;27.25;48.72
3544;BME280;1786;52.870;9.578;2022-10-31T05:47:52;101130.44;;;27.29;48.78
3544;BME280;1786;52.870;9.578;2022-10-31T05:50:38;101137.06;;;27.19;48.77
3544;BME280;1786;52.870;9.578;2022-10-31T05:53:08;101147.94;;;27.26;48.82
3544;BME280;1786;52.870;9.578;2022-10-31T05:55:36;101146.22;;;27.18;49.19
3544;BME280;1786;52.870;9.578;2022-10-31T05:58:20;101155.78;;;27.36;49.08
3544;BME280;1786;52.870;9.578;2022-10-31T06:00:53;101150.22;;;27.44;48.92
3544;BME280;1786;52.870;9.578;2022-10-31T06:03:19;101148.78;;;27.70;48.54
3544;BME280;1786;52.870;9.578;2022-10-31T06:05:51;101151.88;;;27.88;48.35
3544;BME280;1786;52.870;9.578;2022-10-31T06:08:23;101148.25;;;28.02;48.39
3544;BME280;1786;52.870;9.578;2022-10-31T06:10:50;101146.25;;;28.18;47.80
3544;BME280;1786;52.870;9.578;2022-10-31T06:13:27;101146.19;;;28.11;48.44
3544;BME280;1786;52.870;9.578;2022-10-31T06:16:00;101145.78;;;28.14;48.32
3544;BME280;1786;52.870;9.578;2022-10-31T06:18:33;101144.38;;;27.90;48.18
3544;BME280;1786;52.870;9.578;2022-10-31T06:21:00;101145.63;;;27.88;48.27
3544;BME280;1786;52.870;9.578;2022-10-31T06:23:27;101153.53;;;27.39;49.01
3544;BME280;1786;52.870;9.578;2022-10-31T06:26:14;101159.47;;;27.50;48.88
3544;BME280;1786;52.870;9.578;2022-10-31T06:28:40;101157.53;;;27.65;48.34
3544;BME280;1786;52.870;9.578;2022-10-31T06:31:26;101166.16;;;27.75;48.48
3544;BME280;1786;52.870;9.578;2022-10-31T06:33:52;101173.88;;;27.93;48.01
3544;BME280;1786;52.870;9.578;2022-10-31T06:36:19;101171.16;;;27.93;48.68
3544;BME280;1786;52.870;9.578;2022-10-31T06:38:46;101170.75;;;27.96;48.65
3544;BME280;1786;52.870;9.578;2022-10-31T06:41:15;101163.50;;;28.03;48.62
3544;BME280;1786;52.870;9.578;2022-10-31T06:43:46;101165.41;;;28.10;48.02
3544;BME280;1786;52.870;9.578;2022-10-31T06:46:36;101177.06;;;28.03;48.25
3544;BME280;1786;52.870;9.578;2022-10-31T06:49:22;101179.69;;;27.69;49.21
3544;BME280;1786;52.870;9.578;2022-10-31T06:51:52;101175.91;;;27.85;48.87
3544;BME280;1786;52.870;9.578;2022-10-31T06:54:20;101181.50;;;27.83;48.62
3544;BME280;1786;52.870;9.578;2022-10-31T06:56:48;101187.31;;;27.80;49.14
3544;BME280;1786;52.870;9.578;2022-10-31T06:59:15;101174.28;;;27.90;48.62
3544;BME280;1786;52.870;9.578;2022-10-31T07:02:10;101184.16;;;27.98;48.78
3544;BME280;1786;52.870;9.578;2022-10-31T07:04:39;101186.66;;;27.99;48.38
3544;BME280;1786;52.870;9.578;2022-10-31T07:07:06;101182.34;;;28.12;47.88
3544;BME280;1786;52.870;9.578;2022-10-31T07:09:34;101184.44;;;28.38;48.11
3544;BME280;1786;52.870;9.578;2022-10-31T07:12:03;101184.53;;;28.51;47.75
3544;BME280;1786;52.870;9.578;2022-10-31T07:14:31;101182.63;;;28.52;47.53
3544;BME280;1786;52.870;9.578;2022-10-31T07:16:59;101192.66;;;28.92;47.51
3544;BME280;1786;52.870;9.578;2022-10-31T07:19:32;101196.34;;;28.09;48.50
3544;BME280;1786;52.870;9.578;2022-10-31T07:21:59;101201.69;;;27.52;49.89
3544;BME280;1786;52.870;9.578;2022-10-31T07:24:28;101193.72;;;27.51;50.42
3544;BME280;1786;52.870;9.578;2022-10-31T07:27:13;101191.59;;;27.46;49.82
3544;BME280;1786;52.870;9.578;2022-10-31T07:29:43;101186.09;;;27.61;50.34
3544;BME280;1786;52.870;9.578;2022-10-31T07:32:10;101197.16;;;27.38;50.30
3544;BME280;1786;52.870;9.578;2022-10-31T07:34:44;101201.09;;;27.35;50.34
3544;BME280;1786;52.870;9.578;2022-10-31T07:37:21;101205.16;;;27.46;50.28
3544;BME280;1786;52.870;9.578;2022-10-31T07:39:48;101198.13;;;27.15;50.56
3544;BME280;1786;52.870;9.578;2022-10-31T07:42:15;101204.75;;;27.28;50.62
3544;BME280;1786;52.870;9.578;2022-10-31T07:44:44;101208.13;;;27.30;50.70
3544;BME280;1786;52.870;9.578;2022-10-31T07:47:29;101212.81;;;27.06;50.89
3544;BME280;1786;52.870;9.578;2022-10-31T07:50:18;101207.31;;;27.14;50.94
3544;BME280;1786;52.870;9.578;2022-10-31T07:53:12;101212.53;;;27.52;50.15
3544;BME280;1786;52.870;9.578;2022-10-31T07:55:52;101219.72;;;27.24;50.24
3544;BME280;1786;52.870;9.578;2022-10-31T07:58:19;101213.50;;;26.79;51.64
3544;BME280;1786;52.870;9.578;2022-10-31T08:00:46;101213.91;;;26.61;51.96
3544;BME280;1786;52.870;9.578;2022-10-31T08:03:20;101219.94;;;26.48;52.52
3544;BME280;1786;52.870;9.578;2022-10-31T08:06:09;101216.34;;;26.70;52.11
3544;BME280;1786;52.870;9.578;2022-10-31T08:08:54;101203.25;;;26.74;52.16
3544;BME280;1786;52.870;9.578;2022-10-31T08:11:21;101207.75;;;26.82;51.59
3544;BME280;1786;52.870;9.578;2022-10-31T08:13:48;101211.84;;;26.92;51.41
3544;BME280;1786;52.870;9.578;2022-10-31T08:16:15;101208.91;;;26.34;52.46
3544;BME280;1786;52.870;9.578;2022-10-31T08:18:50;101203.66;;;26.18;53.54
3544;BME280;1786;52.870;9.578;2022-10-31T08:21:18;101209.38;;;26.38;53.19
3544;BME280;1786;52.870;9.578;2022-10-31T08:23:45;101203.94;;;26.61;52.71
3544;BME280;1786;52.870;9.578;2022-10-31T08:26:12;101215.94;;;26.88;52.37
3544;BME280;1786;52.870;9.578;2022-10-31T08:28:39;101210.09;;;27.06;52.30
3544;BME280;1786;52.870;9.578;2022-10-31T08:31:06;101207.16;;;27.59;51.62
3544;BME280;1786;52.870;9.578;2022-10-31T08:33:38;101207.22;;;27.66;51.58
3544;BME280;1786;52.870;9.578;2022-10-31T08:36:31;101209.03;;;27.58;51.54
3544;BME280;1786;52.870;9.578;2022-10-31T08:39:04;101216.50;;;27.50;51.45
3544;BME280;1786;52.870;9.578;2022-10-31T08:41:32;101221.13;;;27.77;51.19
3544;BME280;1786;52.870;9.578;2022-10-31T08:43:59;101215.84;;;28.19;50.71
3544;BME280;1786;52.870;9.578;2022-10-31T08:46:26;101206.34;;;28.36;50.02
3544;BME280;1786;52.870;9.578;2022-10-31T08:48:52;101202.09;;;28.27;50.38
3544;BME280;1786;52.870;9.578;2022-10-31T08:51:20;101209.00;;;28.23;50.69
3544;BME280;1786;52.870;9.578;2022-10-31T08:53:50;101210.75;;;28.37;50.54
3544;BME280;1786;52.870;9.578;2022-10-31T08:56:31;101209.34;;;28.76;49.34
3544;BME280;1786;52.870;9.578;2022-10-31T08:59:00;101204.94;;;28.40;50.55
3544;BME280;1786;52.870;9.578;2022-10-31T09:01:53;101201.78;;;28.09;50.57
3544;BME280;1786;52.870;9.578;2022-10-31T09:04:20;101204.75;;;28.14;50.52
3544;BME280;1786;52.870;9.578;2022-10-31T09:06:47;101198.63;;;28.40;50.59
3544;BME280;1786;52.870;9.578;2022-10-31T09:09:33;101191.09;;;28.35;50.40
3544;BME280;1786;52.870;9.578;2022-10-31T09:12:00;101193.81;;;28.35;50.72
3544;BME280;1786;52.870;9.578;2022-10-31T09:14:45;101188.81;;;28.39;50.13
3544;BME280;1786;52.870;9.578;2022-10-31T09:17:24;101190.47;;;28.68;49.89
3544;BME280;1786;52.870;9.578;2022-10-31T09:20:13;101202.19;;;28.75;49.79
3544;BME280;1786;52.870;9.578;2022-10-31T09:22:41;101192.59;;;28.79;50.25
3544;BME280;1786;52.870;9.578;2022-10-31T09:25:08;101194.03;;;28.75;49.69
3544;BME280;1786;52.870;9.578;2022-10-31T09:27:36;101188.34;;;28.63;50.56
3544;BME280;1786;52.870;9.578;2022-10-31T09:30:05;101193.34;;;28.25;51.13
3544;BME280;1786;52.870;9.578;2022-10-31T09:32:32;101186.03;;;28.32;50.70
3544;BME280;1786;52.870;9.578;2022-10-31T09:34:59;101182.88;;;28.57;50.16
3544;BME280;1786;52.870;9.578;2022-10-31T09:37:27;101188.50;;;28.97;50.04
3544;BME280;1786;52.870;9.578;2022-10-31T09:39:54;101193.84;;;29.18;49.68
3544;BME280;1786;52.870;9.578;2022-10-31T09:42:44;101192.81;;;29.26;49.27
3544;BME280;1786;52.870;9.578;2022-10-31T09:45:41;101194.88;;;28.69;50.36
3544;BME280;1786;52.870;9.578;2022-10-31T09:48:46;101185.81;;;28.62;50.27
3544;BME280;1786;52.870;9.578;2022-10-31T09:51:43;101191.03;;;28.98;50.21
3544;BME280;1786;52.870;9.578;2022-10-31T09:54:43;101188.84;;;28.11;51.11
3544;BME280;1786;52.870;9.578;2022-10-31T09:57:16;101184.47;;;27.88;51.62
3544;BME280;1786;52.870;9.578;2022-10-31T09:59:47;101185.19;;;27.75;51.67
3544;BME280;1786;52.870;9.578;2022-10-31T10:04:54;101176.13;;;28.18;51.10
3544;BME280;1786;52.870;9.578;2022-10-31T10:14:01;101181.69;;;28.66;50.76
3544;BME280;1786;52.870;9.578;2022-10-31T10:19:43;101183.31;;;27.97;51.47
3544;BME280;1786;52.870;9.578;2022-10-31T10:22:38;101183.44;;;27.89;52.36
3544;BME280;1786;52.870;9.578;2022-10-31T10:28:17;101189.03;;;28.44;50.97
3544;BME280;1786;52.870;9.578;2022-10-31T10:31:08;101179.75;;;27.32;53.25
3544;BME280;1786;52.870;9.578;2022-10-31T10:36:24;101186.41;;;27.73;53.18
3544;BME280;1786;52.870;9.578;2022-10-31T10:38:57;101180.53;;;27.11;53.55
3544;BME280;1786;52.870;9.578;2022-10-31T10:41:29;101179.09;;;26.34;55.10
3544;BME280;1786;52.870;9.578;2022-10-31T10:44:00;101185.78;;;26.76;54.54
3544;BME280;1786;52.870;9.578;2022-10-31T10:46:41;101182.66;;;26.94;54.02
3544;BME280;1786;52.870;9.578;2022-10-31T10:49:51;101172.84;;;26.49;55.11
3544;BME280;1786;52.870;9.578;2022-10-31T10:52:31;101177.53;;;26.55;54.86
3544;BME280;1786;52.870;9.578;2022-10-31T10:58:02;101176.31;;;26.72;54.20
3544;BME280;1786;52.870;9.578;2022-10-31T11:00:32;101172.34;;;27.05;53.85
3544;BME280;1786;52.870;9.578;2022-10-31T11:03:01;101161.19;;;26.63;54.14
3544;BME280;1786;52.870;9.578;2022-10-31T11:05:35;101168.72;;;26.83;54.11
3544;BME280;1786;52.870;9.578;2022-10-31T11:08:04;101166.78;;;26.76;54.38
3544;BME280;1786;52.870;9.578;2022-10-31T11:10:31;101157.56;;;26.56;55.12
3544;BME280;1786;52.870;9.578;2022-10-31T11:15:49;101163.09;;;27.57;53.34
3544;BME280;1786;52.870;9.578;2022-10-31T11:18:20;101161.38;;;27.77;52.63
3544;BME280;1786;52.870;9.578;2022-10-31T11:20:54;101168.44;;;27.93;51.82
3544;BME280;1786;52.870;9.578;2022-10-31T11:23:23;101161.13;;;27.94;52.02
3544;BME280;1786;52.870;9.578;2022-10-31T11:26:03;101164.06;;;28.27;51.18
3544;BME280;1786;52.870;9.578;2022-10-31T11:28:31;101164.06;;;28.62;50.46
3544;BME280;1786;52.870;9.578;2022-10-31T11:33:34;101164.19;;;27.62;52.75
3544;BME280;1786;52.870;9.578;2022-10-31T11:36:13;101164.94;;;27.56;52.97
3544;BME280;1786;52.870;9.578;2022-10-31T11:38:42;101163.53;;;27.82;52.50
3544;BME280;1786;52.870;9.578;2022-10-31T11:44:02;101154.16;;;28.13;52.03
3544;BME280;1786;52.870;9.578;2022-10-31T11:49:00;101152.00;;;28.78;50.48
3544;BME280;1786;52.870;9.578;2022-10-31T11:51:32;101149.78;;;29.01;50.43
3544;BME280;1786;52.870;9.578;2022-10-31T11:54:01;101141.44;;;28.48;51.00
3544;BME280;1786;52.870;9.578;2022-10-31T11:56:41;101143.38;;;28.61;51.48
3544;BME280;1786;52.870;9.578;2022-10-31T11:59:28;101130.41;;;28.28;51.15
3544;BME280;1786;52.870;9.578;2022-10-31T12:01:57;101140.00;;;28.59;51.13
3544;BME280;1786;52.870;9.578;2022-10-31T12:04:41;101131.50;;;28.82;50.38
3544;BME280;1786;52.870;9.578;2022-10-31T12:07:10;101133.06;;;28.50;51.46
3544;BME280;1786;52.870;9.578;2022-10-31T12:09:38;101138.69;;;29.03;50.73
3544;BME280;1786;52.870;9.578;2022-10-31T12:17:16;101133.22;;;29.03;49.79
3544;BME280;1786;52.870;9.578;2022-10-31T12:22:52;101130.66;;;29.69;49.33
3544;BME280;1786;52.870;9.578;2022-10-31T12:28:13;101131.25;;;29.45;49.83
3544;BME280;1786;52.870;9.578;2022-10-31T12:33:25;101129.38;;;29.39;49.36
3544;BME280;1786;52.870;9.578;2022-10-31T12:44:05;101101.72;;;29.68;49.53
3544;BME280;1786;52.870;9.578;2022-10-31T12:55:50;101076.06;;;28.28;50.71
3544;BME280;1786;52.870;9.578;2022-10-31T12:58:26;101070.75;;;28.48;50.10
3544;BME280;1786;52.870;9.578;2022-10-31T13:01:07;101070.34;;;28.58;50.47
3544;BME280;1786;52.870;9.578;2022-10-31T13:03:57;101070.41;;;28.84;50.65
3544;BME280;1786;52.870;9.578;2022-10-31T13:06:33;101070.50;;;29.44;49.62
3544;BME280;1786;52.870;9.578;2022-10-31T13:09:11;101066.94;;;29.50;49.35
3544;BME280;1786;52.870;9.578;2022-10-31T13:11:43;101069.25;;;29.47;49.63
3544;BME280;1786;52.870;9.578;2022-10-31T13:16:47;101056.91;;;30.49;47.96
3544;BME280;1786;52.870;9.578;2022-10-31T13:19:21;101047.53;;;30.18;47.46
3544;BME280;1786;52.870;9.578;2022-10-31T13:24:21;101039.94;;;29.29;49.27
3544;BME280;1786;52.870;9.578;2022-10-31T13:26:54;101043.16;;;30.24;47.52
3544;BME280;1786;52.870;9.578;2022-10-31T13:29:32;101030.91;;;29.82;47.83
3544;BME280;1786;52.870;9.578;2022-10-31T13:32:04;101026.91;;;29.71;47.98
3544;BME280;1786;52.870;9.578;2022-10-31T13:34:43;101024.97;;;29.98;47.52
3544;BME280;1786;52.870;9.578;2022-10-31T13:37:28;101016.34;;;30.08;47.26
3544;BME280;1786;52.870;9.578;2022-10-31T13:42:41;101019.13;;;29.94;47.43
3544;BME280;1786;52.870;9.578;2022-10-31T13:45:16;101010.22;;;29.14;49.57
3544;BME280;1786;52.870;9.578;2022-10-31T13:47:54;101000.97;;;29.35;48.66
3544;BME280;1786;52.870;9.578;2022-10-31T13:50:29;100985.91;;;29.19;49.10
3544;BME280;1786;52.870;9.578;2022-10-31T13:53:18;100976.69;;;29.33;49.61
3544;BME280;1786;52.870;9.578;2022-10-31T13:55:47;100972.91;;;28.95;50.14
3544;BME280;1786;52.870;9.578;2022-10-31T13:58:23;100964.13;;;28.79;50.18
3544;BME280;1786;52.870;9.578;2022-10-31T14:01:19;100949.91;;;28.02;51.65
3544;BME280;1786;52.870;9.578;2022-10-31T14:03:58;100942.97;;;28.81;50.74
3544;BME280;1786;52.870;9.578;2022-10-31T14:06:52;100957.84;;;28.92;50.19
3544;BME280;1786;52.870;9.578;2022-10-31T14:09:32;100972.41;;;29.84;48.75
3544;BME280;1786;52.870;9.578;2022-10-31T14:12:08;100969.75;;;29.44;48.96
3544;BME280;1786;52.870;9.578;2022-10-31T14:14:46;100962.47;;;30.03;48.50
3544;BME280;1786;52.870;9.578;2022-10-31T14:17:23;100950.91;;;29.43;48.69
3544;BME280;1786;52.870;9.578;2022-10-31T14:20:00;100937.31;;;29.36;48.59
3544;BME280;1786;52.870;9.578;2022-10-31T14:22:31;100930.03;;;29.23;49.28
3544;BME280;1786;52.870;9.578;2022-10-31T14:25:31;100930.50;;;29.85;48.17
3544;BME280;1786;52.870;9.578;2022-10-31T14:28:01;100924.59;;;29.23;48.51
3544;BME280;1786;52.870;9.578;2022-10-31T14:30:29;100912.47;;;29.06;48.80
3544;BME280;1786;52.870;9.578;2022-10-31T14:33:01;100906.91;;;29.46;48.31
3544;BME280;1786;52.870;9.578;2022-10-31T14:35:53;100909.69;;;29.32;48.61
3544;BME280;1786;52.870;9.578;2022-10-31T14:38:40;100909.88;;;29.96;47.85
3544;BME280;1786;52.870;9.578;2022-10-31T14:41:21;100901.41;;;30.17;47.40
3544;BME280;1786;52.870;9.578;2022-10-31T14:44:21;100901.34;;;30.31;46.87
3544;BME280;1786;52.870;9.578;2022-10-31T14:47:06;100900.22;;;30.00;47.39
3544;BME280;1786;52.870;9.578;2022-10-31T14:49:50;100884.53;;;29.44;48.49
3544;BME280;1786;52.870;9.578;2022-10-31T14:52:24;100885.53;;;29.56;48.07
3544;BME280;1786;52.870;9.578;2022-10-31T14:54:53;100880.84;;;28.72;49.66
3544;BME280;1786;52.870;9.578;2022-10-31T14:57:31;100885.84;;;29.15;48.91
3544;BME280;1786;52.870;9.578;2022-10-31T15:00:02;100886.28;;;28.78;49.21
3544;BME280;1786;52.870;9.578;2022-10-31T15:02:35;100877.47;;;28.43;50.01
3544;BME280;1786;52.870;9.578;2022-10-31T15:05:09;100880.00;;;28.71;49.01
3544;BME280;1786;52.870;9.578;2022-10-31T15:07:48;100883.56;;;28.78;49.32
3544;BME280;1786;52.870;9.578;2022-10-31T15:10:21;100892.31;;;29.27;48.22
3544;BME280;1786;52.870;9.578;2022-10-31T15:12:49;100878.25;;;29.37;48.12
3544;BME280;1786;52.870;9.578;2022-10-31T15:15:26;100884.16;;;29.33;48.15
3544;BME280;1786;52.870;9.578;2022-10-31T15:17:58;100881.22;;;29.28;47.72
3544;BME280;1786;52.870;9.578;2022-10-31T15:20:28;100881.22;;;29.02;48.36
3544;BME280;1786;52.870;9.578;2022-10-31T15:22:58;100881.47;;;28.60;49.47